Time;durP1;ratioP1;P1;durP2;ratioP2;P2;SDS_P1;SDS_P2;PMS_P1;PMS_P2;Temp;Humidity;BMP_temperature;BMP_pressure;BME280_temperature;BME280_humidity;BME280_pressure;Samples;Min_cycle;Max_cycle;Signal;HPM_P1;HPM_P2
2023/05/31 00:00:35;;;;;;;;;;;11.90;99.90;;;;;;8330958;28;19920;-78
2023/05/31 00:04:35;;;;;;;;;;;11.90;99.90;;;;;;8331434;28;19966;-77
2023/05/31 00:08:36;;;;;;;;;;;12.10;99.90;;;;;;8329469;28;19909;-78
2023/05/31 00:12:36;;;;;;;;;;;12.00;99.90;;;;;;8328619;28;19933;-78
2023/05/31 00:16:37;;;;;;;;;;;12.20;99.90;;;;;;8339282;28;19913;-77
2023/05/31 00:20:37;;;;;;;;;;;12.20;99.90;;;;;;8333443;28;19913;-78
2023/05/31 00:24:38;;;;;;;;;;;12.20;99.90;;;;;;8360252;28;20016;-78
2023/05/31 00:28:38;;;;;;;;;;;12.10;99.90;;;;;;8331150;28;19954;-78
2023/05/31 00:32:38;;;;;;;;;;;12.10;99.90;;;;;;8313263;28;20313;-78
2023/05/31 00:36:39;;;;;;;;;;;12.10;99.90;;;;;;8384979;23;19957;-77
2023/05/31 00:40:39;;;;;;;;;;;12.00;99.90;;;;;;8329089;28;19917;-77
2023/05/31 00:44:40;;;;;;;;;;;11.90;99.90;;;;;;8328791;28;19917;-77
2023/05/31 00:48:42;;;;;;;;;;;11.90;99.90;;;;;;8328729;28;19944;-77
2023/05/31 00:52:46;;;;;;;;;;;11.90;99.90;;;;;;8327448;28;19909;-78
2023/05/31 00:56:46;;;;;;;;;;;11.90;99.90;;;;;;8324247;28;19913;-78
2023/05/31 01:00:47;;;;;;;;;;;11.70;99.90;;;;;;8315658;28;19998;-78
2023/05/31 01:04:48;;;;;;;;;;;11.70;99.90;;;;;;8343788;28;19967;-77
2023/05/31 01:08:49;;;;;;;;;;;11.60;99.90;;;;;;8324063;28;19918;-78
2023/05/31 01:13:05;;;;;;;;;;;11.50;99.90;;;;;;8308146;28;19910;-78
2023/05/31 01:17:13;;;;;;;;;;;11.40;99.90;;;;;;8313231;28;19914;-78
2023/05/31 01:21:16;;;;;;;;;;;11.40;99.90;;;;;;8302283;28;19917;-78
2023/05/31 01:25:26;;;;;;;;;;;11.50;99.90;;;;;;8316753;28;20386;-77
2023/05/31 01:29:28;;;;;;;;;;;11.30;99.90;;;;;;8310509;28;19910;-78
2023/05/31 01:33:29;;;;;;;;;;;11.00;99.90;;;;;;8323511;28;19951;-78
2023/05/31 01:37:29;;;;;;;;;;;11.10;99.90;;;;;;8311662;28;20319;-78
2023/05/31 01:41:31;;;;;;;;;;;11.20;99.90;;;;;;8315642;28;20306;-77
2023/05/31 01:45:32;;;;;;;;;;;11.20;99.90;;;;;;8320328;28;20409;-78
2023/05/31 01:49:33;;;;;;;;;;;11.20;99.90;;;;;;8300672;28;19910;-77
2023/05/31 01:53:34;;;;;;;;;;;11.30;99.90;;;;;;8308511;28;19916;-77
2023/05/31 01:57:37;;;;;;;;;;;11.00;99.90;;;;;;8303433;28;19917;-77
2023/05/31 02:01:38;;;;;;;;;;;10.80;99.90;;;;;;8317985;28;20075;-77
2023/05/31 02:05:53;;;;;;;;;;;10.70;99.90;;;;;;8316128;28;19925;-77
2023/05/31 02:09:53;;;;;;;;;;;10.70;99.90;;;;;;8309221;28;19910;-78
2023/05/31 02:13:54;;;;;;;;;;;10.40;99.90;;;;;;8303007;28;20357;-77
2023/05/31 02:17:54;;;;;;;;;;;10.40;99.90;;;;;;8314828;28;19920;-77
2023/05/31 02:21:55;;;;;;;;;;;10.40;99.90;;;;;;8317058;28;20298;-78
2023/05/31 02:25:55;;;;;;;;;;;10.40;99.90;;;;;;8319504;28;19913;-78
2023/05/31 02:29:56;;;;;;;;;;;10.40;99.90;;;;;;8316594;28;19909;-77
2023/05/31 02:33:56;;;;;;;;;;;10.40;99.90;;;;;;8312865;28;19917;-78
2023/05/31 02:37:57;;;;;;;;;;;10.60;99.90;;;;;;8305838;28;19920;-77
2023/05/31 02:41:57;;;;;;;;;;;10.60;99.90;;;;;;8313018;28;19917;-78
2023/05/31 02:46:01;;;;;;;;;;;10.60;99.90;;;;;;8313018;28;19956;-78
2023/05/31 02:50:01;;;;;;;;;;;10.50;99.90;;;;;;8312366;28;20004;-78
2023/05/31 02:54:02;;;;;;;;;;;10.30;99.90;;;;;;8304634;28;19909;-78
2023/05/31 02:58:02;;;;;;;;;;;10.40;99.90;;;;;;8309915;28;19913;-78
2023/05/31 03:02:03;;;;;;;;;;;10.40;99.90;;;;;;8301471;28;19909;-78
2023/05/31 03:06:04;;;;;;;;;;;10.30;99.90;;;;;;8315119;28;19976;-78
2023/05/31 03:10:05;;;;;;;;;;;10.20;99.90;;;;;;8321472;28;19913;-78
2023/05/31 03:14:05;;;;;;;;;;;10.00;99.90;;;;;;8315228;28;19916;-78
2023/05/31 03:18:06;;;;;;;;;;;9.80;99.90;;;;;;8314546;28;19990;-77
2023/05/31 03:22:06;;;;;;;;;;;9.60;99.90;;;;;;8312471;28;19913;-77
2023/05/31 03:26:07;;;;;;;;;;;9.40;99.90;;;;;;8300776;28;20390;-78
2023/05/31 03:30:07;;;;;;;;;;;9.20;99.90;;;;;;8309464;28;20584;-78
2023/05/31 03:34:08;;;;;;;;;;;9.10;99.90;;;;;;8309103;28;20701;-78
2023/05/31 03:38:08;;;;;;;;;;;9.20;99.90;;;;;;8317518;28;20528;-78
2023/05/31 03:42:09;;;;;;;;;;;9.20;99.90;;;;;;8312957;28;19921;-78
2023/05/31 03:46:09;;;;;;;;;;;9.30;99.90;;;;;;8325469;28;19928;-78
2023/05/31 03:50:10;;;;;;;;;;;9.30;99.90;;;;;;8310955;28;19909;-78
2023/05/31 03:54:10;;;;;;;;;;;9.70;99.90;;;;;;8312322;28;19921;-78
2023/05/31 03:58:11;;;;;;;;;;;10.10;99.90;;;;;;8304164;28;19918;-78
2023/05/31 04:02:11;;;;;;;;;;;10.40;99.90;;;;;;8310830;28;19913;-77
2023/05/31 04:06:12;;;;;;;;;;;10.70;99.90;;;;;;8312939;28;19948;-77
2023/05/31 04:10:12;;;;;;;;;;;11.00;99.90;;;;;;8310706;28;19917;-77
2023/05/31 04:14:13;;;;;;;;;;;11.30;99.90;;;;;;8310813;28;19913;-79
2023/05/31 04:18:13;;;;;;;;;;;11.50;99.90;;;;;;8307640;28;19917;-78
2023/05/31 04:22:14;;;;;;;;;;;11.70;99.90;;;;;;8305563;28;19913;-80
2023/05/31 04:26:16;;;;;;;;;;;12.10;99.90;;;;;;8306324;28;20007;-79
2023/05/31 04:30:17;;;;;;;;;;;12.40;99.90;;;;;;8334063;28;19960;-78
2023/05/31 04:34:18;;;;;;;;;;;12.80;99.90;;;;;;8310344;28;19920;-78
2023/05/31 04:38:22;;;;;;;;;;;13.10;99.90;;;;;;8317463;28;19918;-79
2023/05/31 04:42:24;;;;;;;;;;;13.30;99.90;;;;;;8302999;28;19934;-78
2023/05/31 04:46:24;;;;;;;;;;;13.40;99.90;;;;;;8308932;28;20066;-78
2023/05/31 04:50:25;;;;;;;;;;;13.70;99.90;;;;;;8309473;28;20436;-76
2023/05/31 04:54:25;;;;;;;;;;;13.90;99.90;;;;;;8309399;28;19913;-77
2023/05/31 04:58:26;;;;;;;;;;;14.20;99.90;;;;;;8321347;28;19922;-78
2023/05/31 05:02:26;;;;;;;;;;;14.80;99.90;;;;;;8311504;28;19936;-78
2023/05/31 05:06:27;;;;;;;;;;;14.90;99.90;;;;;;8317527;28;19945;-78
2023/05/31 05:10:28;;;;;;;;;;;15.10;99.90;;;;;;8331785;28;19913;-79
2023/05/31 05:14:29;;;;;;;;;;;15.60;99.90;;;;;;8303455;28;19959;-77
2023/05/31 05:18:30;;;;;;;;;;;16.10;99.90;;;;;;8305349;28;19914;-77
2023/05/31 05:22:30;;;;;;;;;;;16.60;99.90;;;;;;8309576;28;19913;-78
2023/05/31 05:26:31;;;;;;;;;;;16.60;99.90;;;;;;8319855;28;19920;-78
2023/05/31 05:30:32;;;;;;;;;;;16.60;99.90;;;;;;8313961;28;19920;-79
2023/05/31 05:34:33;;;;;;;;;;;17.00;99.90;;;;;;8307371;28;19917;-78
2023/05/31 05:38:33;;;;;;;;;;;16.80;99.90;;;;;;8316441;28;19914;-78
2023/05/31 05:42:36;;;;;;;;;;;17.30;99.90;;;;;;8327612;28;19929;-77
2023/05/31 05:46:36;;;;;;;;;;;17.40;99.90;;;;;;8320658;28;19913;-78
2023/05/31 05:50:37;;;;;;;;;;;17.60;99.90;;;;;;8328438;28;19924;-78
2023/05/31 05:54:37;;;;;;;;;;;18.20;99.90;;;;;;8312878;28;19995;-78
2023/05/31 05:58:38;;;;;;;;;;;18.40;99.90;;;;;;8310883;28;19917;-78
2023/05/31 06:02:38;;;;;;;;;;;19.10;99.30;;;;;;8307823;28;20167;-78
2023/05/31 06:06:39;;;;;;;;;;;19.40;97.40;;;;;;8308082;28;19909;-77
2023/05/31 06:10:40;;;;;;;;;;;19.80;96.30;;;;;;8310740;28;19956;-77
2023/05/31 06:14:41;;;;;;;;;;;19.90;97.80;;;;;;8314155;28;19915;-78
2023/05/31 06:18:41;;;;;;;;;;;20.00;96.20;;;;;;8311883;28;20413;-79
2023/05/31 06:22:41;;;;;;;;;;;19.80;94.80;;;;;;8304298;28;19910;-76
2023/05/31 06:26:42;;;;;;;;;;;19.80;96.00;;;;;;8309689;28;19913;-78
2023/05/31 06:30:42;;;;;;;;;;;19.20;96.30;;;;;;8305565;28;19996;-78
2023/05/31 06:34:43;;;;;;;;;;;19.00;98.50;;;;;;8328713;28;19953;-79
2023/05/31 06:42:46;;;;;;;;;;;19.10;97.70;;;;;;8403685;28;19928;-80
2023/05/31 06:46:47;;;;;;;;;;;20.00;96.90;;;;;;8398531;28;20419;-78
2023/05/31 06:50:47;;;;;;;;;;;19.60;97.20;;;;;;8389377;28;19909;-78
2023/05/31 06:54:49;;;;;;;;;;;19.40;96.80;;;;;;8389737;28;19987;-80
2023/05/31 06:58:50;;;;;;;;;;;20.20;95.30;;;;;;8389307;28;19934;-79
2023/05/31 07:02:51;;;;;;;;;;;20.80;94.80;;;;;;8387726;28;19909;-79
2023/05/31 07:06:52;;;;;;;;;;;21.30;95.20;;;;;;8382831;28;19908;-78
2023/05/31 07:10:53;;;;;;;;;;;20.30;94.90;;;;;;8389935;28;19909;-79
2023/05/31 07:14:54;;;;;;;;;;;19.90;95.80;;;;;;8389085;28;19909;-79
2023/05/31 07:18:55;;;;;;;;;;;19.90;97.20;;;;;;8389948;28;19916;-79
2023/05/31 07:22:57;;;;;;;;;;;20.90;96.30;;;;;;8388800;28;20361;-79
2023/05/31 07:26:57;;;;;;;;;;;21.60;94.00;;;;;;8383019;28;19912;-78
2023/05/31 07:30:58;;;;;;;;;;;21.00;93.60;;;;;;8388788;28;19960;-76
2023/05/31 07:34:58;;;;;;;;;;;20.90;94.60;;;;;;8386047;28;20296;-78
2023/05/31 07:38:59;;;;;;;;;;;20.50;97.00;;;;;;8389296;28;20372;-77
2023/05/31 07:43:02;;;;;;;;;;;20.90;97.00;;;;;;8387291;28;22588;-78
2023/05/31 07:47:03;;;;;;;;;;;21.00;93.90;;;;;;8383108;28;19993;-79
2023/05/31 07:51:04;;;;;;;;;;;20.70;95.40;;;;;;8387851;28;19978;-79
2023/05/31 07:55:05;;;;;;;;;;;20.60;94.80;;;;;;8390000;28;19912;-80
2023/05/31 07:59:06;;;;;;;;;;;20.70;94.10;;;;;;8390300;28;19916;-79
2023/05/31 08:03:07;;;;;;;;;;;20.80;94.80;;;;;;8385228;28;20123;-78
2023/05/31 08:07:07;;;;;;;;;;;21.10;93.70;;;;;;8381632;28;20499;-79
2023/05/31 08:11:08;;;;;;;;;;;21.00;95.20;;;;;;8388120;28;19908;-78
2023/05/31 08:15:08;;;;;;;;;;;21.30;93.90;;;;;;8388792;28;19956;-79
2023/05/31 08:19:09;;;;;;;;;;;21.70;93.00;;;;;;8387668;28;19919;-78
2023/05/31 08:23:16;;;;;;;;;;;21.80;92.20;;;;;;8387412;28;19916;-77
2023/05/31 08:27:20;;;;;;;;;;;21.30;92.80;;;;;;8388273;28;19912;-77
2023/05/31 08:31:21;;;;;;;;;;;21.10;93.40;;;;;;8380872;28;19916;-79
2023/05/31 08:35:21;;;;;;;;;;;21.20;94.70;;;;;;8393062;28;19954;-79
2023/05/31 08:39:22;;;;;;;;;;;21.80;94.00;;;;;;8394013;28;19916;-79
2023/05/31 08:43:25;;;;;;;;;;;22.40;91.20;;;;;;8382672;28;19908;-80
2023/05/31 08:47:36;;;;;;;;;;;22.70;93.40;;;;;;8382283;28;19909;-77
2023/05/31 08:51:36;;;;;;;;;;;22.60;90.00;;;;;;8394205;28;20606;-78
2023/05/31 08:55:37;;;;;;;;;;;21.80;91.70;;;;;;8394220;28;19912;-79
2023/05/31 08:59:38;;;;;;;;;;;21.80;93.10;;;;;;8393476;28;19920;-79
2023/05/31 09:03:40;;;;;;;;;;;21.80;91.40;;;;;;8386819;28;20527;-80
2023/05/31 09:07:40;;;;;;;;;;;22.40;89.80;;;;;;8390629;28;20430;-79
2023/05/31 09:11:41;;;;;;;;;;;22.60;88.90;;;;;;8394402;28;19908;-80
2023/05/31 09:15:43;;;;;;;;;;;22.40;90.20;;;;;;8392965;28;19912;-79
2023/05/31 09:19:49;;;;;;;;;;;22.60;88.40;;;;;;8391735;28;19913;-79
2023/05/31 09:23:53;;;;;;;;;;;22.40;90.50;;;;;;8392341;28;20363;-78
2023/05/31 09:27:58;;;;;;;;;;;22.30;88.50;;;;;;8393619;28;19912;-80
2023/05/31 09:32:12;;;;;;;;;;;22.50;88.10;;;;;;8387538;28;20323;-80
2023/05/31 09:36:15;;;;;;;;;;;22.30;87.60;;;;;;8392355;28;19908;-80
2023/05/31 09:40:25;;;;;;;;;;;22.40;87.30;;;;;;8393152;28;19920;-81
2023/05/31 09:44:27;;;;;;;;;;;23.00;85.00;;;;;;8383682;28;19909;-79
2023/05/31 09:48:28;;;;;;;;;;;22.40;85.60;;;;;;8386926;28;19908;-79
2023/05/31 09:52:31;;;;;;;;;;;22.50;86.30;;;;;;8391220;28;19966;-79
2023/05/31 09:56:35;;;;;;;;;;;22.90;85.50;;;;;;8379080;28;19915;-79
2023/05/31 10:00:43;;;;;;;;;;;22.80;83.30;;;;;;8386682;28;19964;-80
2023/05/31 10:04:43;;;;;;;;;;;23.50;82.40;;;;;;8383077;28;19960;-80
2023/05/31 10:08:46;;;;;;;;;;;23.00;81.80;;;;;;8383404;28;19916;-81
2023/05/31 10:12:50;;;;;;;;;;;22.90;82.40;;;;;;8382180;28;19936;-79
2023/05/31 10:16:53;;;;;;;;;;;22.90;81.20;;;;;;8380727;28;20475;-79
2023/05/31 10:21:06;;;;;;;;;;;23.10;84.70;;;;;;8393516;28;19920;-78
2023/05/31 10:25:08;;;;;;;;;;;22.90;82.20;;;;;;8378051;28;19913;-81
2023/05/31 10:29:13;;;;;;;;;;;22.90;81.80;;;;;;8391611;28;20270;-80
2023/05/31 10:33:14;;;;;;;;;;;23.00;82.90;;;;;;8388368;28;19919;-79
2023/05/31 10:37:14;;;;;;;;;;;23.00;79.70;;;;;;8392548;28;19908;-80
2023/05/31 10:41:18;;;;;;;;;;;23.10;81.40;;;;;;8386576;28;20389;-79
2023/05/31 10:45:21;;;;;;;;;;;24.10;77.60;;;;;;8381405;28;19923;-78
2023/05/31 10:49:23;;;;;;;;;;;23.90;76.60;;;;;;8378968;28;19970;-79
2023/05/31 10:53:31;;;;;;;;;;;23.50;80.10;;;;;;8390620;28;19908;-79
2023/05/31 10:57:35;;;;;;;;;;;24.00;81.70;;;;;;8375743;28;19916;-79
2023/05/31 11:01:36;;;;;;;;;;;24.30;75.30;;;;;;8374280;28;19912;-79
2023/05/31 11:05:36;;;;;;;;;;;24.30;76.50;;;;;;8380970;28;20007;-78
2023/05/31 11:09:38;;;;;;;;;;;24.20;73.10;;;;;;8385198;28;19915;-79
2023/05/31 11:13:58;;;;;;;;;;;24.40;75.10;;;;;;8384128;28;19908;-80
2023/05/31 11:17:58;;;;;;;;;;;24.60;77.20;;;;;;8380046;28;19984;-80
2023/05/31 11:22:06;;;;;;;;;;;24.50;74.40;;;;;;8390211;28;19912;-79
2023/05/31 11:26:08;;;;;;;;;;;26.40;67.20;;;;;;8380211;28;19920;-79
2023/05/31 11:30:09;;;;;;;;;;;27.50;65.60;;;;;;8379065;28;19909;-80
2023/05/31 11:34:29;;;;;;;;;;;27.80;65.20;;;;;;8386248;28;19909;-79
2023/05/31 11:38:29;;;;;;;;;;;28.00;63.10;;;;;;8378233;28;19912;-80
2023/05/31 11:42:30;;;;;;;;;;;27.00;65.40;;;;;;8382711;28;19916;-78
2023/05/31 11:46:30;;;;;;;;;;;26.20;60.50;;;;;;8373357;28;19908;-79
2023/05/31 11:50:31;;;;;;;;;;;26.40;63.80;;;;;;8386710;28;19954;-81
2023/05/31 11:54:32;;;;;;;;;;;26.90;63.00;;;;;;8388104;28;19908;-80
2023/05/31 11:58:33;;;;;;;;;;;27.50;58.50;;;;;;8385944;28;19939;-80
2023/05/31 12:02:34;;;;;;;;;;;27.70;62.80;;;;;;8379835;28;19917;-81
2023/05/31 12:06:35;;;;;;;;;;;29.10;57.20;;;;;;8384891;28;19979;-80
2023/05/31 12:10:35;;;;;;;;;;;28.50;58.60;;;;;;8375643;28;19940;-78
2023/05/31 12:14:36;;;;;;;;;;;27.30;59.00;;;;;;8395412;28;20000;-80
2023/05/31 12:18:36;;;;;;;;;;;26.90;55.90;;;;;;8395024;28;19955;-78
2023/05/31 12:22:36;;;;;;;;;;;27.90;59.30;;;;;;8395547;28;19934;-79
2023/05/31 12:26:37;;;;;;;;;;;27.80;54.60;;;;;;8380211;28;19919;-80
2023/05/31 12:30:42;;;;;;;;;;;28.10;54.90;;;;;;8378722;28;19919;-79
2023/05/31 12:34:42;;;;;;;;;;;28.60;53.20;;;;;;8392392;28;20044;-79
2023/05/31 12:38:43;;;;;;;;;;;29.30;55.00;;;;;;8439479;23;19978;-79
2023/05/31 12:42:43;;;;;;;;;;;29.00;53.70;;;;;;8436616;28;19908;-80
2023/05/31 12:46:44;;;;;;;;;;;30.10;52.50;;;;;;8431907;28;19919;-79
2023/05/31 12:50:45;;;;;;;;;;;30.20;51.10;;;;;;8413427;28;20372;-79
2023/05/31 12:54:45;;;;;;;;;;;30.20;51.40;;;;;;8432573;28;19931;-80
2023/05/31 12:58:46;;;;;;;;;;;30.70;48.50;;;;;;8412027;28;19916;-79
2023/05/31 13:02:46;;;;;;;;;;;28.50;51.90;;;;;;8428767;28;19975;-79
2023/05/31 13:06:47;;;;;;;;;;;28.70;50.00;;;;;;8424429;28;19908;-77
2023/05/31 13:10:47;;;;;;;;;;;29.20;49.60;;;;;;8440324;28;19908;-79
2023/05/31 13:14:48;;;;;;;;;;;30.30;50.20;;;;;;8409520;28;20442;-79
2023/05/31 13:18:48;;;;;;;;;;;30.50;49.90;;;;;;8426920;28;19948;-80
2023/05/31 13:22:49;;;;;;;;;;;31.20;48.50;;;;;;8409463;28;20152;-80
2023/05/31 13:26:49;;;;;;;;;;;31.50;45.60;;;;;;8409491;28;19908;-79
2023/05/31 13:30:50;;;;;;;;;;;32.10;44.80;;;;;;8409640;28;19915;-79
2023/05/31 13:34:50;;;;;;;;;;;33.10;46.30;;;;;;8406292;28;19995;-79
2023/05/31 13:38:52;;;;;;;;;;;35.00;46.20;;;;;;8408602;28;19927;-78
2023/05/31 13:42:52;;;;;;;;;;;32.30;43.00;;;;;;8426372;28;19912;-79
2023/05/31 13:46:53;;;;;;;;;;;31.90;45.60;;;;;;8402718;28;19912;-79
2023/05/31 13:50:53;;;;;;;;;;;31.70;44.30;;;;;;8408543;28;19915;-80
2023/05/31 13:54:54;;;;;;;;;;;30.50;47.10;;;;;;8408281;28;19920;-79
2023/05/31 13:58:54;;;;;;;;;;;29.50;49.70;;;;;;8426718;28;20162;-79
2023/05/31 14:02:54;;;;;;;;;;;29.90;47.00;;;;;;8405207;28;19954;-79
2023/05/31 14:06:55;;;;;;;;;;;28.80;48.10;;;;;;8401837;28;19954;-79
2023/05/31 14:10:56;;;;;;;;;;;29.80;46.70;;;;;;8408654;28;19912;-78
2023/05/31 14:14:56;;;;;;;;;;;29.00;48.90;;;;;;8426238;28;19912;-79
2023/05/31 14:18:57;;;;;;;;;;;29.40;48.50;;;;;;8426361;28;19969;-79
2023/05/31 14:22:57;;;;;;;;;;;30.00;47.70;;;;;;8367293;28;20373;-78
2023/05/31 14:26:58;;;;;;;;;;;29.00;47.70;;;;;;8379026;28;19968;-79
2023/05/31 14:30:58;;;;;;;;;;;29.60;45.30;;;;;;8353232;28;20312;-77
2023/05/31 14:34:58;;;;;;;;;;;29.20;45.20;;;;;;8401495;28;19912;-82
2023/05/31 14:39:05;;;;;;;;;;;28.70;46.40;;;;;;8377797;28;19921;-85
2023/05/31 14:43:08;;;;;;;;;;;30.10;46.40;;;;;;8380788;28;19927;-78
2023/05/31 14:47:09;;;;;;;;;;;29.00;45.40;;;;;;8377142;28;19951;-80
2023/05/31 14:51:10;;;;;;;;;;;28.30;47.20;;;;;;8375008;28;19913;-80
2023/05/31 14:55:11;;;;;;;;;;;28.60;46.60;;;;;;8395601;28;19908;-80
2023/05/31 14:59:11;;;;;;;;;;;28.80;46.00;;;;;;8408196;28;19916;-79
2023/05/31 15:03:12;;;;;;;;;;;28.60;44.60;;;;;;8400222;28;19908;-77
2023/05/31 15:07:13;;;;;;;;;;;29.50;44.40;;;;;;8400903;28;19935;-80
2023/05/31 15:11:13;;;;;;;;;;;28.50;45.90;;;;;;8423943;28;20151;-79
2023/05/31 15:15:15;;;;;;;;;;;29.20;46.20;;;;;;8370074;28;19912;-80
2023/05/31 15:19:15;;;;;;;;;;;30.60;44.00;;;;;;8420900;28;19912;-81
2023/05/31 15:23:28;;;;;;;;;;;30.10;43.00;;;;;;8388524;28;20327;-86
2023/05/31 15:27:28;;;;;;;;;;;29.80;43.50;;;;;;8382241;28;20386;-83
2023/05/31 15:31:29;;;;;;;;;;;29.10;43.20;;;;;;8388811;28;19956;-84
2023/05/31 15:35:33;;;;;;;;;;;28.70;45.30;;;;;;8381830;28;19919;-83
2023/05/31 15:39:33;;;;;;;;;;;28.40;47.30;;;;;;8379772;28;19916;-84
2023/05/31 15:43:34;;;;;;;;;;;27.40;46.60;;;;;;8380723;28;19912;-84
2023/05/31 15:47:34;;;;;;;;;;;26.10;50.60;;;;;;8378916;28;19917;-83
2023/05/31 15:51:38;;;;;;;;;;;25.30;50.80;;;;;;8407629;28;20004;-84
2023/05/31 15:55:38;;;;;;;;;;;24.40;53.60;;;;;;8401544;28;20380;-85
2023/05/31 15:59:42;;;;;;;;;;;24.00;53.00;;;;;;8394643;28;19924;-84
2023/05/31 16:03:45;;;;;;;;;;;23.90;56.80;;;;;;8392007;28;19916;-84
2023/05/31 16:07:49;;;;;;;;;;;23.90;55.70;;;;;;8392098;28;19917;-84
2023/05/31 16:11:50;;;;;;;;;;;23.80;57.40;;;;;;8368929;28;19916;-79
2023/05/31 16:15:50;;;;;;;;;;;23.60;55.20;;;;;;8379170;28;20304;-80
2023/05/31 16:19:54;;;;;;;;;;;23.80;56.30;;;;;;8361549;28;19932;-77
2023/05/31 16:23:55;;;;;;;;;;;24.10;56.00;;;;;;8364080;28;20460;-77
2023/05/31 16:27:55;;;;;;;;;;;24.00;56.10;;;;;;8362254;28;19938;-78
2023/05/31 16:31:56;;;;;;;;;;;23.70;54.10;;;;;;8372804;28;19919;-79
2023/05/31 16:35:56;;;;;;;;;;;23.50;56.30;;;;;;8370848;28;20002;-80
2023/05/31 16:39:57;;;;;;;;;;;23.40;56.50;;;;;;8367366;28;19924;-77
2023/05/31 16:43:57;;;;;;;;;;;23.20;55.60;;;;;;8366539;28;20327;-80
2023/05/31 16:47:58;;;;;;;;;;;23.10;57.90;;;;;;8372133;28;19963;-79
2023/05/31 16:51:58;;;;;;;;;;;23.10;58.30;;;;;;8394648;28;19934;-78
2023/05/31 16:55:59;;;;;;;;;;;23.00;58.80;;;;;;8407827;28;19908;-79
2023/05/31 17:00:00;;;;;;;;;;;22.80;59.00;;;;;;8405057;28;20389;-77
2023/05/31 17:04:00;;;;;;;;;;;22.60;60.60;;;;;;8410397;28;19909;-77
2023/05/31 17:08:01;;;;;;;;;;;22.50;62.00;;;;;;8430522;28;19991;-80
2023/05/31 17:12:01;;;;;;;;;;;22.40;62.10;;;;;;8422433;28;19908;-77
2023/05/31 17:16:02;;;;;;;;;;;22.20;62.90;;;;;;8398253;28;19912;-78
2023/05/31 17:20:04;;;;;;;;;;;21.90;60.70;;;;;;8399456;28;20438;-78
2023/05/31 17:24:05;;;;;;;;;;;21.80;62.90;;;;;;8394330;28;20420;-79
2023/05/31 17:28:06;;;;;;;;;;;21.60;66.90;;;;;;8406804;28;19977;-79
2023/05/31 17:32:07;;;;;;;;;;;21.70;63.50;;;;;;8412681;28;19908;-78
2023/05/31 17:36:07;;;;;;;;;;;21.60;64.30;;;;;;8400903;28;20347;-78
2023/05/31 17:40:08;;;;;;;;;;;21.50;65.20;;;;;;8417443;28;19916;-78
2023/05/31 17:44:08;;;;;;;;;;;21.40;66.80;;;;;;8406823;28;19915;-78
2023/05/31 17:48:09;;;;;;;;;;;21.30;67.00;;;;;;8385527;28;20288;-78
2023/05/31 17:52:09;;;;;;;;;;;21.20;67.70;;;;;;8405350;28;20303;-79
2023/05/31 17:56:10;;;;;;;;;;;21.10;69.20;;;;;;8392823;28;20008;-80
2023/05/31 18:00:11;;;;;;;;;;;21.00;71.20;;;;;;8406504;28;19935;-79
2023/05/31 18:04:11;;;;;;;;;;;20.80;70.00;;;;;;8388101;28;20347;-79
2023/05/31 18:08:12;;;;;;;;;;;20.80;72.30;;;;;;8418760;28;20002;-79
2023/05/31 18:12:12;;;;;;;;;;;20.60;74.10;;;;;;8413796;28;19973;-79
2023/05/31 18:16:12;;;;;;;;;;;20.30;74.60;;;;;;8403896;28;19916;-80
2023/05/31 18:20:13;;;;;;;;;;;20.10;73.90;;;;;;8397926;28;19921;-79
2023/05/31 18:24:14;;;;;;;;;;;20.00;73.60;;;;;;8386156;28;19923;-79
2023/05/31 18:28:14;;;;;;;;;;;19.90;73.70;;;;;;8402422;28;19912;-78
2023/05/31 18:32:15;;;;;;;;;;;19.80;75.60;;;;;;8407942;28;19915;-78
2023/05/31 18:36:16;;;;;;;;;;;19.60;75.00;;;;;;8429033;28;19961;-78
2023/05/31 18:44:19;;;;;;;;;;;19.00;78.80;;;;;;8322178;28;19998;-80
2023/05/31 18:48:20;;;;;;;;;;;18.60;83.30;;;;;;8328493;28;19920;-78
2023/05/31 18:52:21;;;;;;;;;;;18.20;87.90;;;;;;8332622;28;19956;-80
2023/05/31 18:56:21;;;;;;;;;;;17.80;90.10;;;;;;8322064;28;19912;-80
2023/05/31 19:00:24;;;;;;;;;;;17.50;91.20;;;;;;8321559;28;19916;-80
2023/05/31 19:04:24;;;;;;;;;;;17.40;93.00;;;;;;8336002;28;19919;-79
2023/05/31 19:08:25;;;;;;;;;;;17.10;95.30;;;;;;8339686;28;20503;-79
2023/05/31 19:12:26;;;;;;;;;;;16.60;96.60;;;;;;8345730;28;19924;-81
2023/05/31 19:16:26;;;;;;;;;;;16.20;98.40;;;;;;8341605;28;19920;-79
2023/05/31 19:20:26;;;;;;;;;;;16.00;99.90;;;;;;8345101;28;19927;-80
2023/05/31 19:24:27;;;;;;;;;;;15.80;99.90;;;;;;8329516;28;19952;-80
2023/05/31 19:28:27;;;;;;;;;;;15.60;99.90;;;;;;8323561;28;19916;-80
2023/05/31 19:32:28;;;;;;;;;;;15.40;99.90;;;;;;8321200;28;19912;-80
2023/05/31 19:36:28;;;;;;;;;;;15.00;99.90;;;;;;8334225;28;19916;-79
2023/05/31 19:40:30;;;;;;;;;;;14.70;99.90;;;;;;8341185;28;19921;-80
2023/05/31 19:44:30;;;;;;;;;;;14.50;99.90;;;;;;8351609;28;20300;-80
2023/05/31 19:48:31;;;;;;;;;;;14.40;99.90;;;;;;8328972;28;19913;-80
2023/05/31 19:52:31;;;;;;;;;;;14.30;99.90;;;;;;8329400;28;19912;-80
2023/05/31 19:56:31;;;;;;;;;;;14.10;99.90;;;;;;8344824;28;19944;-80
2023/05/31 20:00:32;;;;;;;;;;;13.90;99.90;;;;;;8322368;28;19917;-78
2023/05/31 20:04:32;;;;;;;;;;;13.50;99.90;;;;;;8304008;28;19913;-81
2023/05/31 20:08:33;;;;;;;;;;;13.20;99.90;;;;;;8297579;28;19913;-80
2023/05/31 20:12:33;;;;;;;;;;;13.10;99.90;;;;;;8345356;28;19913;-82
2023/05/31 20:16:34;;;;;;;;;;;13.10;99.90;;;;;;8308733;28;19920;-82
2023/05/31 20:20:35;;;;;;;;;;;12.80;99.90;;;;;;8311414;28;20016;-81
2023/05/31 20:24:35;;;;;;;;;;;12.60;99.90;;;;;;8304801;28;19949;-80
2023/05/31 20:28:35;;;;;;;;;;;12.50;99.90;;;;;;8321202;28;19913;-80
2023/05/31 20:32:36;;;;;;;;;;;12.40;99.90;;;;;;8311982;28;19913;-80
2023/05/31 20:36:38;;;;;;;;;;;12.50;99.90;;;;;;8305145;28;19959;-80
2023/05/31 20:40:38;;;;;;;;;;;12.40;99.90;;;;;;8315463;28;19924;-81
2023/05/31 20:44:39;;;;;;;;;;;12.30;99.90;;;;;;8324453;28;19921;-81
2023/05/31 20:48:39;;;;;;;;;;;12.10;99.90;;;;;;8305962;28;19917;-81
2023/05/31 20:52:40;;;;;;;;;;;11.90;99.90;;;;;;8310786;28;20286;-81
2023/05/31 20:56:41;;;;;;;;;;;11.70;99.90;;;;;;8325680;28;19913;-81
2023/05/31 21:00:41;;;;;;;;;;;11.60;99.90;;;;;;8330738;28;19924;-81
2023/05/31 21:04:41;;;;;;;;;;;11.60;99.90;;;;;;8315635;28;20351;-81
2023/05/31 21:08:42;;;;;;;;;;;11.60;99.90;;;;;;8328919;28;20170;-81
2023/05/31 21:12:42;;;;;;;;;;;11.50;99.90;;;;;;8330577;28;20348;-80
2023/05/31 21:16:43;;;;;;;;;;;11.30;99.90;;;;;;8312696;28;19909;-80
2023/05/31 21:20:43;;;;;;;;;;;11.30;99.90;;;;;;8333054;28;19917;-81
2023/05/31 21:24:44;;;;;;;;;;;11.30;99.90;;;;;;8330411;28;19909;-80
2023/05/31 21:28:44;;;;;;;;;;;11.20;99.90;;;;;;8362857;28;19909;-80
2023/05/31 21:32:45;;;;;;;;;;;11.10;99.90;;;;;;8363154;28;19909;-80
2023/05/31 21:36:46;;;;;;;;;;;11.00;99.90;;;;;;8327647;28;19940;-80
2023/05/31 21:40:46;;;;;;;;;;;11.00;99.90;;;;;;8325414;28;19975;-81
2023/05/31 21:44:46;;;;;;;;;;;10.90;99.90;;;;;;8322612;28;19932;-80
2023/05/31 21:48:47;;;;;;;;;;;10.80;99.90;;;;;;8332221;28;20415;-80
2023/05/31 21:52:47;;;;;;;;;;;10.80;99.90;;;;;;8331514;28;19913;-80
2023/05/31 21:56:48;;;;;;;;;;;10.70;99.90;;;;;;8332597;28;20182;-80
2023/05/31 22:00:48;;;;;;;;;;;10.70;99.90;;;;;;8345220;28;20385;-80
2023/05/31 22:04:49;;;;;;;;;;;10.60;99.90;;;;;;8348460;28;19979;-80
2023/05/31 22:08:49;;;;;;;;;;;10.60;99.90;;;;;;8356684;28;19916;-80
2023/05/31 22:12:50;;;;;;;;;;;10.50;99.90;;;;;;8333683;28;20006;-80
2023/05/31 22:16:51;;;;;;;;;;;10.50;99.90;;;;;;8359038;28;19909;-80
2023/05/31 22:20:53;;;;;;;;;;;10.60;99.90;;;;;;8342911;28;19913;-80
2023/05/31 22:24:53;;;;;;;;;;;10.60;99.90;;;;;;8342484;28;19920;-80
2023/05/31 22:28:53;;;;;;;;;;;10.50;99.90;;;;;;8325728;28;19917;-80
2023/05/31 22:32:55;;;;;;;;;;;10.50;99.90;;;;;;8338290;28;19916;-80
2023/05/31 22:36:55;;;;;;;;;;;10.50;99.90;;;;;;8356916;28;19919;-80
2023/05/31 22:40:56;;;;;;;;;;;10.60;99.90;;;;;;8336673;28;19917;-80
2023/05/31 22:44:56;;;;;;;;;;;10.50;99.90;;;;;;8337901;28;19909;-80
2023/05/31 22:48:57;;;;;;;;;;;10.50;99.90;;;;;;8342020;28;20278;-80
2023/05/31 22:52:59;;;;;;;;;;;10.40;99.90;;;;;;8340902;28;19909;-81
2023/05/31 22:57:00;;;;;;;;;;;10.40;99.90;;;;;;8342333;28;21425;-81
2023/05/31 23:01:01;;;;;;;;;;;10.40;99.90;;;;;;8341378;28;20004;-81
2023/05/31 23:05:01;;;;;;;;;;;10.30;99.90;;;;;;8333827;28;19963;-80
2023/05/31 23:09:02;;;;;;;;;;;10.20;99.90;;;;;;8326245;28;19914;-81
2023/05/31 23:13:03;;;;;;;;;;;10.10;99.90;;;;;;8334522;28;19974;-80
2023/05/31 23:17:04;;;;;;;;;;;10.00;99.90;;;;;;8333490;28;20369;-80
2023/05/31 23:21:05;;;;;;;;;;;10.00;99.90;;;;;;8317988;28;19971;-81
2023/05/31 23:25:06;;;;;;;;;;;10.40;99.90;;;;;;8317496;28;20017;-80
2023/05/31 23:29:07;;;;;;;;;;;10.90;99.90;;;;;;8314408;28;19941;-79
2023/05/31 23:33:07;;;;;;;;;;;11.10;99.90;;;;;;8345304;28;19909;-80